createdAt,value
2019-02-04T00:00:38.703Z,5.18
2019-02-04T00:03:08.464Z,5.17
2019-02-04T00:05:38.108Z,5.07
2019-02-04T00:08:09.716Z,4.95
2019-02-04T00:10:39.452Z,5.00
2019-02-04T00:13:09.106Z,5.05
2019-02-04T00:15:38.741Z,4.98
2019-02-04T00:18:09.307Z,4.99
2019-02-04T00:20:39.028Z,4.97
2019-02-04T00:23:08.652Z,4.92
2019-02-04T00:25:38.317Z,5.02
2019-02-04T00:28:08.052Z,5.05
2019-02-04T00:30:37.738Z,5.08
2019-02-04T00:33:07.147Z,5.04
2019-02-04T00:35:36.931Z,5.03
2019-02-04T00:38:06.708Z,5.02
2019-02-04T00:40:36.455Z,5.23
2019-02-04T00:43:06.198Z,4.94
2019-02-04T00:45:35.903Z,4.88
2019-02-04T00:48:05.588Z,4.90
2019-02-04T00:50:35.384Z,4.88
2019-02-04T00:53:05.279Z,5.11
2019-02-04T00:55:34.960Z,5.12
2019-02-04T00:58:04.700Z,5.10
2019-02-04T01:00:34.390Z,5.13
2019-02-04T01:03:04.253Z,5.10
2019-02-04T01:05:34.008Z,5.14
2019-02-04T01:08:03.877Z,5.09
2019-02-04T01:10:33.431Z,5.11
2019-02-04T01:13:03.038Z,5.09
2019-02-04T01:15:32.753Z,5.21
2019-02-04T01:18:02.347Z,5.28
2019-02-04T01:20:32.125Z,5.35
2019-02-04T01:23:01.751Z,5.40
2019-02-04T01:25:31.068Z,5.36
2019-02-04T01:28:00.778Z,5.31
2019-02-04T01:30:30.328Z,5.34
2019-02-04T01:32:59.891Z,5.12
2019-02-04T01:35:29.519Z,5.18
2019-02-04T01:37:59.360Z,5.20
2019-02-04T01:40:29.056Z,5.32
2019-02-04T01:42:58.543Z,5.22
2019-02-04T01:45:28.038Z,5.19
2019-02-04T01:47:57.579Z,5.12
2019-02-04T01:50:27.061Z,5.09
2019-02-04T01:52:56.719Z,5.09
2019-02-04T01:55:26.482Z,5.16
2019-02-04T01:57:57.042Z,5.34
2019-02-04T02:00:35.376Z,5.32
2019-02-04T02:03:05.227Z,5.23
2019-02-04T02:05:34.641Z,5.18
2019-02-04T02:08:04.172Z,4.99
2019-02-04T02:10:33.816Z,5.03
2019-02-04T02:13:03.534Z,5.05
2019-02-04T02:15:33.230Z,5.03
2019-02-04T02:18:02.995Z,5.16
2019-02-04T02:20:32.712Z,5.16
2019-02-04T02:23:02.467Z,5.17
2019-02-04T02:25:32.068Z,5.15
2019-02-04T02:28:01.537Z,5.18
2019-02-04T02:30:32.745Z,5.20
2019-02-04T02:33:02.399Z,5.16
2019-02-04T02:35:31.972Z,5.14
2019-02-04T02:38:01.616Z,5.08
2019-02-04T02:40:33.044Z,5.15
2019-02-04T02:43:02.683Z,5.10
2019-02-04T02:45:32.466Z,5.11
2019-02-04T02:48:02.200Z,5.10
2019-02-04T02:50:31.719Z,5.10
2019-02-04T02:53:01.402Z,5.06
2019-02-04T02:55:31.090Z,5.18
2019-02-04T02:58:00.755Z,5.07
2019-02-04T03:00:30.267Z,5.08
2019-02-04T03:02:59.908Z,5.11
2019-02-04T03:05:29.655Z,4.99
2019-02-04T03:07:59.328Z,4.96
2019-02-04T03:10:30.990Z,4.96
2019-02-04T03:13:00.861Z,5.05
2019-02-04T03:15:30.443Z,5.11
2019-02-04T03:18:00.177Z,5.14
2019-02-04T03:20:29.766Z,5.16
2019-02-04T03:22:59.401Z,5.06
2019-02-04T03:25:28.907Z,4.99
2019-02-04T03:27:58.578Z,5.04
2019-02-04T03:30:30.977Z,4.98
2019-02-04T03:33:00.561Z,4.92
2019-02-04T03:35:30.096Z,4.98
2019-02-04T03:37:59.984Z,5.07
2019-02-04T03:40:31.385Z,4.96
2019-02-04T03:43:01.096Z,5.02
2019-02-04T03:45:30.848Z,5.04
2019-02-04T03:48:05.100Z,5.14
2019-02-04T03:50:30.514Z,5.31
2019-02-04T03:52:59.976Z,5.22
2019-02-04T03:55:29.710Z,5.11
2019-02-04T03:57:59.642Z,5.00
2019-02-04T04:00:31.328Z,4.93
2019-02-04T04:03:01.018Z,4.95
2019-02-04T04:05:30.586Z,4.94
2019-02-04T04:08:00.312Z,5.06
2019-02-04T04:10:30.141Z,4.99
2019-02-04T04:12:59.696Z,4.99
2019-02-04T04:15:29.413Z,4.98
2019-02-04T04:17:59.129Z,4.99
2019-02-04T04:20:28.695Z,5.00
2019-02-04T04:22:58.151Z,4.94
2019-02-04T04:25:31.202Z,4.95
2019-02-04T04:28:00.748Z,4.95
2019-02-04T04:30:30.714Z,4.91
2019-02-04T04:33:00.201Z,4.94
2019-02-04T04:35:29.677Z,4.92
2019-02-04T04:37:59.386Z,4.98
2019-02-04T04:40:29.034Z,4.99
2019-02-04T04:42:58.599Z,5.01
2019-02-04T04:45:28.119Z,5.01
2019-02-04T04:47:57.652Z,5.04
2019-02-04T04:50:27.117Z,5.08
2019-02-04T05:10:18.468Z,5.09
2019-02-04T05:12:48.207Z,5.14
2019-02-04T05:15:19.708Z,5.15
2019-02-04T05:17:49.264Z,5.14
2019-02-04T05:20:19.042Z,5.10
2019-02-04T05:22:48.833Z,5.16
2019-02-04T05:25:18.559Z,5.21
2019-02-04T05:27:48.237Z,5.28
2019-02-04T05:30:19.640Z,5.43
2019-02-04T05:32:49.706Z,5.52
2019-02-04T05:35:19.550Z,5.44
2019-02-04T05:37:49.353Z,5.35
2019-02-04T05:40:19.155Z,5.30
2019-02-04T05:42:48.659Z,5.27
2019-02-04T05:45:19.250Z,5.38
2019-02-04T05:47:49.029Z,5.46
2019-02-04T05:50:19.133Z,5.42
2019-02-04T05:52:49.171Z,5.42
2019-02-04T05:55:20.203Z,5.51
2019-02-04T05:57:49.973Z,5.40
2019-02-04T06:00:23.816Z,5.43
2019-02-04T06:02:53.870Z,5.47
2019-02-04T06:05:23.416Z,5.53
2019-02-04T06:07:52.824Z,5.57
2019-02-04T06:10:22.616Z,5.55
2019-02-04T06:12:52.425Z,5.63
2019-02-04T06:15:22.102Z,5.69
2019-02-04T06:17:51.924Z,5.69
2019-02-04T06:20:21.902Z,5.73
2019-02-04T06:22:51.619Z,5.63
2019-02-04T06:25:21.163Z,5.59
2019-02-04T06:27:50.748Z,5.57
2019-02-04T06:30:20.202Z,5.66
2019-02-04T06:32:49.882Z,5.70
2019-02-04T06:35:19.582Z,5.75
2019-02-04T06:37:49.333Z,5.81
2019-02-04T06:40:18.708Z,5.84
2019-02-04T06:42:49.214Z,5.85
2019-02-04T06:45:18.786Z,5.85
2019-02-04T06:47:48.456Z,5.86
2019-02-04T06:50:18.397Z,5.91
2019-02-04T06:52:48.041Z,5.96
2019-02-04T06:55:19.963Z,6.00
2019-02-04T06:57:49.818Z,6.07
2019-02-04T07:00:19.405Z,6.04
2019-02-04T07:02:49.074Z,6.02
2019-02-04T07:05:18.849Z,6.02
2019-02-04T07:07:48.368Z,6.03
2019-02-04T07:10:19.739Z,6.06
2019-02-04T07:12:49.474Z,6.11
2019-02-04T07:15:20.203Z,6.21
2019-02-04T07:17:50.108Z,6.17
2019-02-04T07:20:21.719Z,6.22
2019-02-04T07:22:51.373Z,6.23
2019-02-04T07:25:21.260Z,6.28
2019-02-04T07:27:51.101Z,6.33
2019-02-04T07:30:22.484Z,6.35
2019-02-04T07:32:52.269Z,6.31
2019-02-04T07:35:22.045Z,6.34
2019-02-04T07:37:51.762Z,6.45
2019-02-04T07:40:25.241Z,6.48
2019-02-04T07:42:55.053Z,6.61
2019-02-04T07:45:24.777Z,6.65
2019-02-04T07:47:54.516Z,6.77
2019-02-04T07:50:24.309Z,6.89
2019-02-04T07:52:53.904Z,6.96
2019-02-04T07:55:23.475Z,7.04
2019-02-04T07:57:53.250Z,7.24
2019-02-04T08:00:27.508Z,7.20
2019-02-04T08:02:57.371Z,7.19
2019-02-04T08:05:27.079Z,7.35
2019-02-04T08:07:56.931Z,7.41
2019-02-04T08:10:26.828Z,7.23
2019-02-04T08:13:01.655Z,7.23
2019-02-04T08:15:28.439Z,7.14
2019-02-04T08:17:58.111Z,7.04
2019-02-04T08:20:28.379Z,6.98
2019-02-04T08:22:58.161Z,7.02
2019-02-04T08:25:27.929Z,7.12
2019-02-04T08:27:57.499Z,7.19
2019-02-04T08:30:29.096Z,7.28
2019-02-04T08:32:58.599Z,7.37
2019-02-04T08:35:28.365Z,7.43
2019-02-04T08:37:57.908Z,7.53
2019-02-04T08:40:27.637Z,7.48
2019-02-04T08:42:57.138Z,7.52
2019-02-04T08:45:26.975Z,7.63
2019-02-04T08:47:56.659Z,7.73
2019-02-04T08:50:26.571Z,7.89
2019-02-04T08:52:56.491Z,7.85
2019-02-04T08:55:26.194Z,7.84
2019-02-04T08:57:55.907Z,7.96
2019-02-04T09:00:25.569Z,8.02
2019-02-04T09:02:55.376Z,8.11
2019-02-04T09:05:25.171Z,8.19
2019-02-04T09:07:54.756Z,8.18
2019-02-04T09:10:27.540Z,8.33
2019-02-04T09:12:57.364Z,8.45
2019-02-04T09:15:27.149Z,8.50
2019-02-04T09:17:57.076Z,8.58
2019-02-04T09:20:26.751Z,8.66
2019-02-04T09:22:56.588Z,8.88
2019-02-04T09:25:26.431Z,9.06
2019-02-04T09:27:56.552Z,9.32
2019-02-04T09:30:26.604Z,9.48
2019-02-04T09:32:56.626Z,9.77
2019-02-04T09:35:26.382Z,9.71
2019-02-04T09:37:56.088Z,9.58
2019-02-04T09:40:28.215Z,9.50
2019-02-04T09:42:57.865Z,9.63
2019-02-04T09:45:28.051Z,9.77
2019-02-04T09:47:57.489Z,9.67
2019-02-04T09:50:27.733Z,9.67
2019-02-04T09:52:57.421Z,9.64
2019-02-04T09:55:29.451Z,9.59
2019-02-04T09:57:59.090Z,9.78
2019-02-04T10:00:30.335Z,9.76
2019-02-04T10:02:59.961Z,9.76
2019-02-04T10:05:29.592Z,9.80
2019-02-04T10:07:59.515Z,9.74
2019-02-04T10:10:29.455Z,9.78
2019-02-04T10:12:59.275Z,9.80
2019-02-04T10:15:31.138Z,9.70
2019-02-04T10:18:00.847Z,9.70
2019-02-04T10:20:34.115Z,9.73
2019-02-04T10:23:00.240Z,9.84
2019-02-04T10:25:31.816Z,9.85
2019-02-04T10:28:01.499Z,9.82
2019-02-04T10:30:31.707Z,9.80
2019-02-04T10:33:01.306Z,9.85
2019-02-04T10:35:31.117Z,9.95
2019-02-04T10:38:00.598Z,10.03
2019-02-04T10:40:30.332Z,10.13
2019-02-04T10:43:00.127Z,10.08
2019-02-04T10:45:29.609Z,10.15
2019-02-04T10:47:59.501Z,10.21
2019-02-04T10:50:31.019Z,10.30
2019-02-04T10:53:00.642Z,10.33
2019-02-04T10:55:30.255Z,10.53
2019-02-04T10:57:59.743Z,10.68
2019-02-04T11:00:30.901Z,10.56
2019-02-04T11:03:00.617Z,10.62
2019-02-04T11:05:31.694Z,10.67
2019-02-04T11:08:01.380Z,10.75
2019-02-04T11:10:34.772Z,10.87
2019-02-04T11:13:06.763Z,10.87
2019-02-04T11:15:36.591Z,10.89
2019-02-04T11:18:06.501Z,10.80
2019-02-04T11:20:36.206Z,10.77
2019-02-04T11:23:07.071Z,10.82
2019-02-04T11:25:36.830Z,10.78
2019-02-04T11:28:07.705Z,10.76
2019-02-04T11:30:40.856Z,10.74
2019-02-04T11:33:10.563Z,10.76
2019-02-04T11:35:40.193Z,10.78
2019-02-04T11:38:10.013Z,10.90
2019-02-04T11:40:39.672Z,11.07
2019-02-04T11:43:09.374Z,11.06
2019-02-04T11:45:39.120Z,11.11
2019-02-04T11:48:10.087Z,11.24
2019-02-04T11:50:40.226Z,11.27
2019-02-04T11:53:10.010Z,11.38
2019-02-04T11:55:39.767Z,11.42
2019-02-04T11:58:09.597Z,11.60
2019-02-04T12:00:39.285Z,11.67
2019-02-04T12:03:10.055Z,11.82
2019-02-04T12:05:40.006Z,12.12
2019-02-04T12:25:31.725Z,13.86
2019-02-04T12:28:01.385Z,14.13
2019-02-04T12:30:34.887Z,14.54
2019-02-04T12:33:05.583Z,14.90
2019-02-04T12:35:35.190Z,15.05
2019-02-04T12:38:04.881Z,15.45
2019-02-04T12:40:34.622Z,15.70
2019-02-04T12:43:03.952Z,16.18
2019-02-04T13:02:56.354Z,19.16
2019-02-04T13:05:30.536Z,18.91
2019-02-04T13:08:00.366Z,18.70
2019-02-04T13:10:30.148Z,18.91
2019-02-04T13:30:24.030Z,17.99
2019-02-04T13:32:53.770Z,18.15
2019-02-04T13:35:23.485Z,18.74
2019-02-04T13:37:53.162Z,18.59
2019-02-04T13:40:24.814Z,18.46
2019-02-04T13:42:54.654Z,17.65
2019-02-04T13:45:24.619Z,17.53
2019-02-04T13:47:54.339Z,17.34
2019-02-04T13:50:24.295Z,17.11
2019-02-04T14:10:19.307Z,14.39
2019-02-04T14:30:14.832Z,14.43
2019-02-04T14:51:20.558Z,13.67
2019-02-04T14:56:13.647Z,13.44
2019-02-04T14:58:54.611Z,13.01
2019-02-04T15:02:40.815Z,12.86
2019-02-04T15:05:51.911Z,12.75
2019-02-04T15:09:10.320Z,12.70
2019-02-04T15:12:06.087Z,12.60
2019-02-04T15:14:54.067Z,12.65
2019-02-04T15:17:54.516Z,12.73
2019-02-04T15:20:36.779Z,12.36
2019-02-04T15:23:17.381Z,12.30
2019-02-04T15:26:34.940Z,12.18
2019-02-04T15:29:10.877Z,12.18
2019-02-04T15:31:52.976Z,12.00
2019-02-04T15:34:33.925Z,11.88
2019-02-04T15:37:15.168Z,11.88
2019-02-04T15:46:01.117Z,11.73
2019-02-04T15:48:38.624Z,11.66
2019-02-04T15:51:16.208Z,11.62
2019-02-04T15:53:45.844Z,11.68
2019-02-04T15:56:15.710Z,11.64
2019-02-04T15:58:45.388Z,11.66
2019-02-04T16:01:14.963Z,11.59
2019-02-04T16:03:44.888Z,11.47
2019-02-04T16:06:14.757Z,11.30
2019-02-04T16:08:44.334Z,11.33
2019-02-04T16:11:14.122Z,11.22
2019-02-04T16:13:43.669Z,11.21
2019-02-04T16:16:13.420Z,11.19
2019-02-04T16:18:43.047Z,11.39
2019-02-04T16:21:12.761Z,11.27
2019-02-04T16:23:42.590Z,11.13
2019-02-04T16:26:15.124Z,11.11
2019-02-04T16:28:42.870Z,10.93
2019-02-04T16:31:11.904Z,10.87
2019-02-04T16:33:41.771Z,10.83
2019-02-04T16:36:11.532Z,10.83
2019-02-04T16:38:41.429Z,10.84
2019-02-04T16:41:11.103Z,10.84
2019-02-04T16:43:40.730Z,10.74
2019-02-04T16:46:10.304Z,10.81
2019-02-04T16:48:40.175Z,10.72
2019-02-04T16:51:11.879Z,10.78
2019-02-04T16:53:39.915Z,10.71
2019-02-04T16:56:09.899Z,10.55
2019-02-04T16:58:39.372Z,10.62
2019-02-04T17:01:09.214Z,10.54
2019-02-04T17:03:38.808Z,10.59
2019-02-04T17:06:08.455Z,10.52
2019-02-04T17:08:38.453Z,10.47
2019-02-04T17:11:07.955Z,10.48
2019-02-04T17:13:37.497Z,10.46
2019-02-04T17:16:07.615Z,10.54
2019-02-04T17:18:37.146Z,10.44
2019-02-04T17:21:06.879Z,10.40
2019-02-04T17:23:36.555Z,10.38
2019-02-04T17:26:06.075Z,10.29
2019-02-04T17:28:35.758Z,10.22
2019-02-04T17:31:05.564Z,10.27
2019-02-04T17:33:35.116Z,10.33
2019-02-04T17:36:05.025Z,10.16
2019-02-04T17:38:34.920Z,10.09
2019-02-04T17:41:04.726Z,9.99
2019-02-04T17:43:34.643Z,9.87
2019-02-04T17:46:04.496Z,9.85
2019-02-04T17:48:34.101Z,9.67
2019-02-04T17:51:03.864Z,9.61
2019-02-04T17:53:34.492Z,9.57
2019-02-04T17:56:04.100Z,9.56
2019-02-04T17:58:33.562Z,9.46
2019-02-04T18:01:03.377Z,9.47
2019-02-04T18:03:32.856Z,9.30
2019-02-04T18:06:02.313Z,9.26
2019-02-04T18:08:31.956Z,9.12
2019-02-04T18:11:01.561Z,8.98
2019-02-04T18:13:31.415Z,8.79
2019-02-04T18:16:01.109Z,8.60
2019-02-04T18:18:30.743Z,8.57
2019-02-04T18:21:00.343Z,8.59
2019-02-04T18:23:30.116Z,8.71
2019-02-04T18:26:00.270Z,8.59
2019-02-04T18:28:29.979Z,8.50
2019-02-04T18:30:59.722Z,8.43
2019-02-04T18:33:29.291Z,8.36
2019-02-04T18:35:58.906Z,8.26
2019-02-04T18:38:28.557Z,8.31
2019-02-04T18:40:58.179Z,8.26
2019-02-04T18:43:27.566Z,8.27
2019-02-04T18:45:57.183Z,8.24
2019-02-04T18:48:26.978Z,8.04
2019-02-04T18:50:56.752Z,8.02
2019-02-04T18:53:26.460Z,8.01
2019-02-04T18:55:56.177Z,7.90
2019-02-04T18:58:25.612Z,7.89
2019-02-04T19:00:55.493Z,7.90
2019-02-04T19:03:25.270Z,7.77
2019-02-04T19:05:54.685Z,7.68
2019-02-04T19:08:24.484Z,7.68
2019-02-04T19:10:54.180Z,7.66
2019-02-04T19:13:35.483Z,7.73
2019-02-04T19:15:53.995Z,7.64
2019-02-04T19:18:23.593Z,7.60
2019-02-04T19:20:53.195Z,7.50
2019-02-04T19:23:23.140Z,7.30
2019-02-04T19:25:52.839Z,7.21
2019-02-04T19:28:22.616Z,7.17
2019-02-04T19:30:58.421Z,7.15
2019-02-04T19:33:28.201Z,7.18
2019-02-04T19:35:57.907Z,7.23
2019-02-04T19:38:27.560Z,7.18
2019-02-04T19:40:57.084Z,7.09
2019-02-04T19:43:26.643Z,7.07
2019-02-04T19:45:56.420Z,7.06
2019-02-04T19:48:25.938Z,6.99
2019-02-04T19:50:55.548Z,7.02
2019-02-04T19:53:25.497Z,7.08
2019-02-04T19:55:55.013Z,7.08
2019-02-04T19:58:24.640Z,7.00
2019-02-04T20:00:54.444Z,7.02
2019-02-04T20:03:24.133Z,7.03
2019-02-04T20:05:53.828Z,6.95
2019-02-04T20:08:23.570Z,6.88
2019-02-04T20:10:53.177Z,6.73
2019-02-04T20:13:22.901Z,6.39
2019-02-04T20:15:52.583Z,6.50
2019-02-04T20:18:22.307Z,6.51
2019-02-04T20:20:51.871Z,6.50
2019-02-04T20:23:21.512Z,6.42
2019-02-04T20:25:51.195Z,6.25
2019-02-04T20:28:20.596Z,6.11
2019-02-04T20:30:50.356Z,6.11
2019-02-04T20:33:20.024Z,6.17
2019-02-04T20:35:49.656Z,6.20
2019-02-04T20:38:19.128Z,6.23
2019-02-04T20:40:48.658Z,6.18
2019-02-04T20:43:18.289Z,6.26
2019-02-04T20:45:48.404Z,6.22
2019-02-04T20:48:17.993Z,6.27
2019-02-04T20:50:48.247Z,6.27
2019-02-04T20:53:17.891Z,6.30
2019-02-04T20:55:47.725Z,6.21
2019-02-04T20:58:17.435Z,6.31
2019-02-04T21:00:47.239Z,6.33
2019-02-04T21:03:16.908Z,6.29
2019-02-04T21:05:46.457Z,6.21
2019-02-04T21:08:16.075Z,6.19
2019-02-04T21:10:45.779Z,6.21
2019-02-04T21:13:15.293Z,6.13
2019-02-04T21:15:44.927Z,6.13
2019-02-04T21:18:14.503Z,6.15
2019-02-04T21:20:43.909Z,6.14
2019-02-04T21:23:13.452Z,6.24
2019-02-04T21:25:42.996Z,6.24
2019-02-04T21:28:12.736Z,6.21
2019-02-04T21:30:43.600Z,6.22
2019-02-04T21:33:13.189Z,6.22
2019-02-04T21:35:42.724Z,6.24
2019-02-04T21:38:12.394Z,6.22
2019-02-04T21:40:42.112Z,6.23
2019-02-04T21:43:11.747Z,6.26
2019-02-04T21:45:41.396Z,6.30
2019-02-04T21:48:10.979Z,6.14
2019-02-04T21:50:40.709Z,6.17
2019-02-04T21:53:10.523Z,6.20
2019-02-04T21:55:39.946Z,6.22
2019-02-04T21:58:09.679Z,6.26
2019-02-04T22:00:40.534Z,6.23
2019-02-04T22:03:10.069Z,6.15
2019-02-04T22:05:39.595Z,6.17
2019-02-04T22:08:09.474Z,6.23
2019-02-04T22:10:39.051Z,6.14
2019-02-04T22:13:08.467Z,6.11
2019-02-04T22:15:38.095Z,6.17
2019-02-04T22:18:07.919Z,6.04
2019-02-04T22:20:37.550Z,6.04
2019-02-04T22:23:07.232Z,5.94
2019-02-04T22:25:36.682Z,5.94
2019-02-04T22:28:06.309Z,5.96
2019-02-04T22:30:36.081Z,5.88
2019-02-04T22:33:06.134Z,5.81
2019-02-04T22:35:35.693Z,5.78
2019-02-04T22:38:05.421Z,5.78
2019-02-04T22:40:34.859Z,5.68
2019-02-04T22:43:04.612Z,5.70
2019-02-04T22:45:34.310Z,5.59
2019-02-04T22:48:03.722Z,5.64
2019-02-04T22:50:33.409Z,5.61
2019-02-04T22:53:02.975Z,5.56
2019-02-04T22:55:32.869Z,5.56
2019-02-04T22:58:02.485Z,5.60
2019-02-04T23:01:00.657Z,5.53
2019-02-04T23:03:30.301Z,5.29
2019-02-04T23:06:00.040Z,5.29
2019-02-04T23:08:29.917Z,5.26
2019-02-04T23:10:59.429Z,5.18
2019-02-04T23:13:29.559Z,5.28
2019-02-04T23:15:59.215Z,5.18
2019-02-04T23:18:28.798Z,5.10
2019-02-04T23:20:58.323Z,5.20
2019-02-04T23:23:27.975Z,5.22
2019-02-04T23:25:57.647Z,5.22
2019-02-04T23:28:27.306Z,5.20
2019-02-04T23:30:58.636Z,5.29
2019-02-04T23:33:34.062Z,5.36
2019-02-04T23:35:58.003Z,5.26
2019-02-04T23:38:27.731Z,5.24
2019-02-04T23:40:57.411Z,5.08
2019-02-04T23:43:27.179Z,5.03
2019-02-04T23:45:57.068Z,5.03
2019-02-04T23:48:26.902Z,5.01
2019-02-04T23:50:56.666Z,5.03
2019-02-04T23:53:26.395Z,5.00
2019-02-04T23:55:56.071Z,4.96
2019-02-04T23:58:25.709Z,4.95
